createdAt,value
2023-03-15T00:13:23.406Z,100353.44
2023-03-15T00:20:59.495Z,100372.78
2023-03-15T00:28:33.495Z,100383.13
2023-03-15T00:36:11.204Z,100404.16
2023-03-15T00:43:45.770Z,100410.13
2023-03-15T00:51:23.444Z,100418.84
2023-03-15T00:58:58.489Z,100429.31
2023-03-15T01:06:33.841Z,100435.34
2023-03-15T01:14:09.126Z,100443.69
2023-03-15T01:21:47.911Z,100445.16
2023-03-15T01:29:24.063Z,100468.84
2023-03-15T01:37:00.949Z,100468.06
2023-03-15T01:44:56.629Z,100475.09
2023-03-15T01:52:37.669Z,100469.06
2023-03-15T02:00:15.660Z,100485.69
2023-03-15T02:07:54.718Z,100481.81
2023-03-15T02:15:28.859Z,100494.56
2023-03-15T02:23:07.267Z,100504.72
2023-03-15T02:30:43.196Z,100507.16
2023-03-15T02:38:17.228Z,100519.59
2023-03-15T02:46:10.676Z,100522.84
2023-03-15T02:53:44.673Z,100540.41
2023-03-15T03:01:20.799Z,100543.69
2023-03-15T03:08:54.712Z,100559.09
2023-03-15T03:16:30.441Z,100560.72
2023-03-15T03:24:04.382Z,100563.19
2023-03-15T03:31:39.857Z,100565.66
2023-03-15T03:39:14.127Z,100574.97
2023-03-15T03:46:49.276Z,100589.56
2023-03-15T03:54:23.273Z,100604.22
2023-03-15T04:01:58.696Z,100616.22
2023-03-15T04:09:37.591Z,100624.56
2023-03-15T04:17:13.338Z,100628.00
2023-03-15T04:24:50.825Z,100644.50
2023-03-15T04:32:26.538Z,100649.53
2023-03-15T04:40:01.522Z,100655.38
2023-03-15T04:47:36.939Z,100666.56
2023-03-15T04:55:11.739Z,100672.50
2023-03-15T05:02:52.268Z,100686.28
2023-03-15T05:10:30.870Z,100705.34
2023-03-15T05:18:06.524Z,100710.94
2023-03-15T05:25:40.559Z,100723.00
2023-03-15T05:33:16.088Z,100734.25
2023-03-15T05:40:50.450Z,100739.59
2023-03-15T05:48:25.842Z,100760.19
2023-03-15T05:55:59.919Z,100773.00
2023-03-15T06:03:35.000Z,100786.78
2023-03-15T06:11:09.161Z,100795.94
2023-03-15T06:18:44.544Z,100809.13
2023-03-15T06:26:19.441Z,100822.09
2023-03-15T06:33:54.964Z,100828.84
2023-03-15T06:41:28.987Z,100842.56
2023-03-15T06:49:04.586Z,100846.63
2023-03-15T06:56:38.777Z,100866.78
2023-03-15T07:04:14.100Z,100865.25
2023-03-15T07:11:47.945Z,100882.97
2023-03-15T07:19:23.489Z,100883.72
2023-03-15T07:26:57.514Z,100885.03
2023-03-15T07:34:33.090Z,100890.00
2023-03-15T07:42:08.167Z,100901.06
2023-03-15T07:49:43.598Z,100913.13
2023-03-15T07:57:17.667Z,100910.34
2023-03-15T08:04:53.380Z,100915.63
2023-03-15T08:12:28.112Z,100921.63
2023-03-15T08:20:04.375Z,100920.97
2023-03-15T08:27:38.455Z,100930.47
2023-03-15T08:43:07.538Z,100955.56
2023-03-15T08:50:43.209Z,100968.13
2023-03-15T08:58:19.929Z,100988.94
2023-03-15T09:05:58.864Z,101010.00
2023-03-15T09:13:32.902Z,101012.72
2023-03-15T09:21:08.493Z,101017.03
2023-03-15T09:28:42.466Z,101033.00
2023-03-15T09:36:18.150Z,101033.72
2023-03-15T09:44:06.547Z,101048.50
2023-03-15T09:51:48.590Z,101061.72
2023-03-15T09:59:24.135Z,101069.22
2023-03-15T10:07:02.036Z,101067.84
2023-03-15T10:14:59.138Z,101080.44
2023-03-15T10:22:40.063Z,101091.06
2023-03-15T10:30:18.497Z,101086.03
2023-03-15T10:37:53.753Z,101089.16
2023-03-15T10:45:28.443Z,101100.38
2023-03-15T10:53:11.326Z,101111.19
2023-03-15T11:00:51.846Z,101101.03
2023-03-15T11:08:38.576Z,101105.50
2023-03-15T11:16:22.975Z,101099.09
2023-03-15T11:24:01.191Z,101105.59
2023-03-15T11:31:36.931Z,101107.34
2023-03-15T11:39:15.774Z,101112.22
2023-03-15T11:46:52.126Z,101116.03
2023-03-15T11:54:32.498Z,101124.78
2023-03-15T12:02:37.556Z,101118.91
2023-03-15T12:10:34.062Z,101114.81
2023-03-15T12:18:15.203Z,101118.56
2023-03-15T12:33:51.491Z,101116.97
2023-03-15T12:41:39.177Z,101112.88
2023-03-15T12:49:15.165Z,101125.81
2023-03-15T12:56:54.480Z,101139.31
2023-03-15T13:04:29.636Z,101141.19
2023-03-15T13:12:15.314Z,101135.16
2023-03-15T13:19:57.671Z,101133.81
2023-03-15T13:27:47.404Z,101138.38
2023-03-15T13:35:21.370Z,101140.34
2023-03-15T13:43:01.210Z,101166.81
2023-03-15T13:50:35.273Z,101186.06
2023-03-15T13:58:11.267Z,101189.97
2023-03-15T14:05:48.207Z,101185.16
2023-03-15T14:13:26.325Z,101189.44
2023-03-15T14:21:01.980Z,101188.44
2023-03-15T14:28:37.637Z,101181.19
2023-03-15T14:36:24.149Z,101183.81
2023-03-15T14:44:00.207Z,101179.94
2023-03-15T14:51:34.308Z,101175.94
2023-03-15T14:59:13.485Z,101187.19
2023-03-15T15:06:52.262Z,101186.88
2023-03-15T15:14:28.724Z,101206.13
2023-03-15T15:22:02.909Z,101206.38
2023-03-15T15:29:38.438Z,101207.94
2023-03-15T15:37:12.853Z,101221.84
2023-03-15T15:44:48.435Z,101234.13
2023-03-15T15:52:22.787Z,101237.41
2023-03-15T15:59:58.027Z,101247.63
2023-03-15T16:07:32.349Z,101277.00
2023-03-15T16:15:08.737Z,101297.28
2023-03-15T16:22:44.936Z,101321.63
2023-03-15T16:30:23.969Z,101315.91
2023-03-15T16:37:59.770Z,101322.03
2023-03-15T16:45:35.218Z,101320.03
2023-03-15T16:53:11.731Z,101340.41
2023-03-15T17:00:48.773Z,101349.13
2023-03-15T17:08:23.108Z,101355.22
2023-03-15T17:16:25.383Z,101381.66
2023-03-15T17:23:59.740Z,101384.06
2023-03-15T17:31:36.144Z,101407.69
2023-03-15T17:39:17.004Z,101403.06
2023-03-15T17:46:52.412Z,101411.66
2023-03-15T17:54:26.394Z,101421.09
2023-03-15T18:02:01.888Z,101429.47
2023-03-15T18:09:35.682Z,101429.25
2023-03-15T18:25:05.064Z,101453.91
2023-03-15T18:40:33.458Z,101479.94
2023-03-15T18:48:09.498Z,101488.69
2023-03-15T18:55:44.722Z,101483.97
2023-03-15T19:03:22.109Z,101493.03
2023-03-15T19:10:59.214Z,101499.25
2023-03-15T19:18:34.842Z,101498.22
2023-03-15T19:26:09.223Z,101507.00
2023-03-15T19:33:44.457Z,101515.31
2023-03-15T19:41:18.405Z,101520.25
2023-03-15T19:48:53.916Z,101520.44
2023-03-15T19:56:28.076Z,101527.28
2023-03-15T20:04:03.560Z,101537.03
2023-03-15T20:11:37.563Z,101543.03
2023-03-15T20:27:04.750Z,101557.34
2023-03-15T20:34:41.502Z,101568.34
2023-03-15T20:42:15.423Z,101576.75
2023-03-15T20:57:43.520Z,101591.47
2023-03-15T21:05:18.684Z,101607.66
2023-03-15T21:12:52.646Z,101610.53
2023-03-15T21:20:28.183Z,101610.53
2023-03-15T21:28:02.118Z,101614.34
2023-03-15T21:35:37.270Z,101615.56
2023-03-15T21:43:11.403Z,101628.16
2023-03-15T21:50:46.536Z,101620.41
2023-03-15T21:58:20.346Z,101629.75
2023-03-15T22:05:55.442Z,101632.81
2023-03-15T22:13:30.219Z,101636.66
2023-03-15T22:21:05.872Z,101651.09
2023-03-15T22:28:39.650Z,101654.94
2023-03-15T22:36:17.187Z,101654.22
2023-03-15T22:43:52.686Z,101670.22
2023-03-15T22:51:27.977Z,101676.81
2023-03-15T22:59:01.700Z,101667.63
2023-03-15T23:06:37.024Z,101670.81
2023-03-15T23:14:11.148Z,101677.53
2023-03-15T23:21:46.494Z,101678.72
2023-03-15T23:29:20.274Z,101688.81
2023-03-15T23:36:55.531Z,101695.41
2023-03-15T23:44:29.250Z,101695.09
2023-03-15T23:52:06.031Z,101699.94
2023-03-15T23:59:41.366Z,101706.56
